createdAt,value
2019-02-16T14:02:29.448Z,22.74
2019-02-16T14:05:44.594Z,26.67
2019-02-16T14:08:39.727Z,29.11
2019-02-16T14:09:39.856Z,28.95
2019-02-16T14:10:50.506Z,29.40
2019-02-16T14:11:40.193Z,29.68
2019-02-16T14:32:03.232Z,25.44
2019-02-16T14:35:55.537Z,23.57
2019-02-16T14:38:34.104Z,22.16
2019-02-16T14:39:34.278Z,22.06
2019-02-16T14:45:46.477Z,21.61
2019-02-16T14:46:47.735Z,21.67
2019-02-16T14:47:47.952Z,21.48
2019-02-16T14:48:49.962Z,21.14
2019-02-16T14:49:48.343Z,21.24
2019-02-16T14:50:48.506Z,21.45
2019-02-16T14:51:48.692Z,21.44
2019-02-16T14:52:48.863Z,21.32
2019-02-16T14:53:49.026Z,21.59
2019-02-16T14:54:49.185Z,21.72
2019-02-16T14:55:53.982Z,22.02
2019-02-16T14:56:51.500Z,21.98
2019-02-16T14:57:49.642Z,21.56
2019-02-16T14:58:49.817Z,21.13
2019-02-16T14:59:49.977Z,20.84
2019-02-16T15:00:50.129Z,20.90
2019-02-16T15:01:50.280Z,21.09
2019-02-16T15:02:50.460Z,21.39
2019-02-16T15:03:50.623Z,21.42
2019-02-16T15:04:50.846Z,21.35
2019-02-16T15:05:51.020Z,21.34
2019-02-16T15:06:51.188Z,21.54
2019-02-16T15:07:51.345Z,21.67
2019-02-16T15:08:51.514Z,21.83
2019-02-16T15:09:51.723Z,21.82
2019-02-16T15:10:51.915Z,21.63
2019-02-16T15:11:52.094Z,21.72
2019-02-16T15:12:52.316Z,21.66
2019-02-16T15:13:52.492Z,21.48
2019-02-16T15:14:52.659Z,21.51
2019-02-16T15:15:52.845Z,21.41
2019-02-16T15:16:53.039Z,21.27
2019-02-16T15:17:53.215Z,21.08
2019-02-16T15:18:53.419Z,20.77
2019-02-16T15:19:53.610Z,20.71
2019-02-16T15:20:53.771Z,20.51
2019-02-16T15:21:53.920Z,20.33
2019-02-16T15:22:54.150Z,20.12
2019-02-16T15:23:54.306Z,19.95
2019-02-16T15:24:54.486Z,19.70
2019-02-16T15:26:00.906Z,19.47
2019-02-16T15:26:56.803Z,19.23
2019-02-16T15:27:54.938Z,19.11
2019-02-16T15:28:55.113Z,18.82
2019-02-16T15:29:55.280Z,18.68
2019-02-16T15:30:55.437Z,18.58
2019-02-16T15:31:55.603Z,18.49
2019-02-16T15:32:55.938Z,18.28
2019-02-16T15:33:56.009Z,17.95
2019-02-16T15:34:56.183Z,17.89
2019-02-16T15:35:57.178Z,17.70
2019-02-16T15:36:56.859Z,17.63
2019-02-16T15:37:56.852Z,17.26
2019-02-16T15:38:56.960Z,17.14
2019-02-16T15:39:57.200Z,17.03
2019-02-16T15:40:57.381Z,16.85
2019-02-16T15:41:57.605Z,16.52
2019-02-16T15:42:57.837Z,16.37
2019-02-16T15:43:58.314Z,16.40
2019-02-16T15:44:58.261Z,16.49
2019-02-16T15:45:58.452Z,16.53
2019-02-16T15:46:58.681Z,16.53
2019-02-16T15:47:58.798Z,16.16
2019-02-16T15:48:59.046Z,16.07
2019-02-16T15:49:59.133Z,15.94
2019-02-16T15:50:59.306Z,16.01
2019-02-16T15:51:59.500Z,15.93
2019-02-16T15:52:59.882Z,15.99
2019-02-16T15:54:00.095Z,16.06
2019-02-16T15:55:00.329Z,15.92
2019-02-16T15:56:00.371Z,15.94
2019-02-16T15:57:00.644Z,15.92
2019-02-16T15:58:00.748Z,15.94
2019-02-16T15:59:01.146Z,15.97
2019-02-16T16:00:01.373Z,15.82
2019-02-16T16:01:01.473Z,15.76
2019-02-16T16:02:01.654Z,15.54
2019-02-16T16:03:02.186Z,15.38
2019-02-16T16:04:02.704Z,15.08
2019-02-16T16:05:02.340Z,14.87
2019-02-16T16:06:02.494Z,14.56
2019-02-16T16:07:02.515Z,14.39
2019-02-16T16:08:02.737Z,13.84
2019-02-16T16:09:02.943Z,13.38
2019-02-16T16:10:04.824Z,13.18
2019-02-16T16:11:04.185Z,13.29
2019-02-16T16:12:03.602Z,13.11
2019-02-16T16:13:03.751Z,13.06
2019-02-16T16:14:03.824Z,13.03
2019-02-16T16:15:04.182Z,12.95
2019-02-16T16:16:04.171Z,12.99
2019-02-16T16:17:04.407Z,12.78
2019-02-16T16:18:04.510Z,12.79
2019-02-16T16:19:04.650Z,12.70
2019-02-16T16:20:05.043Z,12.75
2019-02-16T16:21:05.265Z,12.62
2019-02-16T16:22:05.322Z,12.69
2019-02-16T16:23:05.456Z,12.56
2019-02-16T16:24:05.648Z,12.60
2019-02-16T16:25:05.839Z,12.48
2019-02-16T16:26:06.073Z,12.46
2019-02-16T16:27:06.215Z,12.46
2019-02-16T16:28:06.399Z,12.46
2019-02-16T16:29:06.646Z,12.42
2019-02-16T16:30:06.912Z,12.38
2019-02-16T16:31:07.277Z,12.16
2019-02-16T16:32:07.207Z,12.06
2019-02-16T16:33:07.254Z,11.90
2019-02-16T16:34:07.446Z,11.93
2019-02-16T16:35:07.941Z,11.82
2019-02-16T16:36:08.247Z,11.86
2019-02-16T16:37:08.413Z,11.75
2019-02-16T16:38:08.993Z,11.64
2019-02-16T16:39:09.186Z,11.57
2019-02-16T16:40:08.636Z,11.29
2019-02-16T16:41:09.120Z,11.21
2019-02-16T16:42:09.826Z,10.98
2019-02-16T16:43:09.639Z,10.89
2019-02-16T16:44:09.623Z,10.81
2019-02-16T16:45:10.786Z,10.80
2019-02-16T16:46:09.783Z,10.78
2019-02-16T16:47:09.913Z,10.65
2019-02-16T16:48:10.138Z,10.55
2019-02-16T16:49:10.309Z,10.40
2019-02-16T16:50:18.503Z,10.22
2019-02-16T16:51:13.219Z,10.15
2019-02-16T16:52:11.052Z,10.14
2019-02-16T16:53:11.525Z,10.10
2019-02-16T16:54:11.371Z,9.89
2019-02-16T16:55:11.492Z,9.79
2019-02-16T16:56:11.574Z,9.31
2019-02-16T16:57:11.742Z,8.99
2019-02-16T16:58:11.910Z,8.87
2019-02-16T16:59:12.090Z,8.86
2019-02-16T17:00:12.322Z,8.83
2019-02-16T17:01:12.640Z,8.76
2019-02-16T17:02:13.141Z,8.63
2019-02-16T17:03:13.501Z,8.66
2019-02-16T17:16:52.746Z,7.63
2019-02-16T17:17:54.037Z,7.66
2019-02-16T17:18:54.175Z,7.56
2019-02-16T17:19:54.493Z,7.38
2019-02-16T17:20:54.725Z,7.40
2019-02-16T17:21:54.722Z,7.09
2019-02-16T17:22:55.901Z,6.86
2019-02-16T17:23:55.085Z,6.84
2019-02-16T17:24:55.289Z,6.80
2019-02-16T17:25:55.514Z,6.83
2019-02-16T17:26:55.716Z,6.71
2019-02-16T17:27:55.930Z,6.69
2019-02-16T17:28:56.147Z,6.72
2019-02-16T17:29:56.329Z,6.66
2019-02-16T17:30:56.523Z,6.59
2019-02-16T17:31:56.758Z,6.35
2019-02-16T17:32:56.969Z,6.35
2019-02-16T17:33:57.080Z,6.26
2019-02-16T17:34:57.310Z,6.21
2019-02-16T17:35:57.498Z,6.13
2019-02-16T17:36:57.700Z,6.25
2019-02-16T17:37:57.937Z,6.07
2019-02-16T17:38:58.008Z,6.01
2019-02-16T17:39:58.198Z,5.96
2019-02-16T17:40:58.418Z,5.89
2019-02-16T17:41:58.528Z,5.85
2019-02-16T17:42:58.744Z,5.68
2019-02-16T17:43:58.952Z,5.67
2019-02-16T17:44:59.215Z,5.71
2019-02-16T17:45:59.301Z,5.66
2019-02-16T17:46:59.505Z,5.67
2019-02-16T17:47:59.683Z,5.49
2019-02-16T17:48:59.962Z,5.50
2019-02-16T17:50:00.053Z,5.49
2019-02-16T17:51:00.175Z,5.37
2019-02-16T17:52:00.433Z,5.35
2019-02-16T17:53:00.541Z,5.28
2019-02-16T17:54:08.179Z,5.17
2019-02-16T17:55:02.995Z,5.17
2019-02-16T17:56:01.136Z,5.14
2019-02-16T17:57:01.343Z,5.05
2019-02-16T17:58:01.598Z,5.05
2019-02-16T17:59:01.783Z,5.09
2019-02-16T18:00:02.003Z,5.05
2019-02-16T18:30:28.835Z,3.60
2019-02-16T18:31:30.653Z,3.47
2019-02-16T18:32:31.550Z,3.47
2019-02-16T18:33:31.406Z,3.47
2019-02-16T18:34:30.590Z,3.43
2019-02-16T18:35:30.802Z,3.40
2019-02-16T18:36:31.232Z,3.44
2019-02-16T18:37:31.324Z,3.39
2019-02-16T18:38:31.400Z,3.30
2019-02-16T18:39:31.627Z,3.23
2019-02-16T18:40:31.859Z,3.09
2019-02-16T18:41:32.060Z,2.91
2019-02-16T18:42:32.308Z,2.94
2019-02-16T18:43:32.465Z,2.98
2019-02-16T18:44:32.938Z,2.98
2019-02-16T18:45:32.924Z,2.87
2019-02-16T18:46:33.142Z,2.79
2019-02-16T18:47:33.478Z,2.76
2019-02-16T18:48:33.881Z,2.67
2019-02-16T18:49:33.976Z,2.63
2019-02-16T18:50:34.085Z,2.64
2019-02-16T18:51:34.375Z,2.59
2019-02-16T18:52:34.612Z,2.66
2019-02-16T18:53:34.479Z,2.63
2019-02-16T18:54:34.675Z,2.52
2019-02-16T18:55:34.943Z,2.59
2019-02-16T18:56:35.114Z,2.59
2019-02-16T18:57:35.384Z,2.58
2019-02-16T18:58:35.475Z,2.41
2019-02-16T18:59:35.571Z,2.49
2019-02-16T20:00:29.606Z,0.75
2019-02-16T20:01:30.782Z,0.68
2019-02-16T20:02:31.014Z,0.68
2019-02-16T20:03:31.171Z,0.49
2019-02-16T20:04:31.326Z,0.49
2019-02-16T20:05:31.687Z,0.48
2019-02-16T20:06:31.986Z,0.48
2019-02-16T20:07:32.018Z,0.48
2019-02-16T20:08:32.157Z,0.53
2019-02-16T20:09:32.301Z,0.57
2019-02-16T20:10:32.493Z,0.57
2019-02-16T20:11:32.696Z,0.51
2019-02-16T20:12:32.850Z,0.49
2019-02-16T20:13:33.108Z,0.58
2019-02-16T20:14:33.195Z,0.58
2019-02-16T20:15:33.447Z,0.52
2019-02-16T20:16:33.687Z,0.49
2019-02-16T20:17:33.812Z,0.46
2019-02-16T20:18:34.184Z,0.41
2019-02-16T20:19:34.187Z,0.34
2019-02-16T20:20:34.394Z,0.34
2019-02-16T20:21:34.522Z,0.36
2019-02-16T20:22:34.627Z,0.51
2019-02-16T20:23:34.828Z,0.58
2019-02-16T20:24:34.993Z,0.71
2019-02-16T20:25:35.094Z,0.76
2019-02-16T20:26:35.357Z,0.62
2019-02-16T20:27:37.655Z,0.64
2019-02-16T20:28:36.619Z,0.61
2019-02-16T20:29:35.964Z,0.64
2019-02-16T20:30:36.930Z,0.49
2019-02-16T20:31:36.282Z,0.51
2019-02-16T20:32:36.404Z,0.41
2019-02-16T20:33:36.573Z,0.41
2019-02-16T20:34:36.665Z,0.28
2019-02-16T20:35:36.902Z,0.27
2019-02-16T20:36:37.102Z,0.18
2019-02-16T20:37:39.312Z,0.16
2019-02-16T20:38:37.605Z,0.12
2019-02-16T20:39:37.759Z,0.05
2019-02-16T20:40:37.898Z,0.07
2019-02-16T20:41:38.003Z,0.10
2019-02-16T20:42:38.198Z,-0.06
2019-02-16T20:43:38.482Z,-0.01
2019-02-16T20:44:38.611Z,-0.06
2019-02-16T20:45:38.735Z,-0.13
2019-02-16T20:46:38.925Z,-0.23
2019-02-16T20:47:39.099Z,-0.22
2019-02-16T20:48:39.339Z,-0.15
2019-02-16T20:49:39.547Z,-0.11
2019-02-16T20:50:39.728Z,-0.16
2019-02-16T20:51:39.940Z,0.00
2019-02-16T20:52:40.159Z,-0.04
2019-02-16T20:53:40.391Z,-0.04
2019-02-16T20:54:41.596Z,-0.01
2019-02-16T20:55:40.775Z,-0.04
2019-02-16T20:56:40.976Z,-0.11
2019-02-16T20:57:47.847Z,-0.19
2019-02-16T20:58:43.401Z,-0.23
2019-02-16T20:59:41.529Z,-0.22
2019-02-16T21:15:26.929Z,-0.45
2019-02-16T21:16:27.034Z,-0.50
2019-02-16T21:17:27.167Z,-0.55
2019-02-16T21:18:27.329Z,-0.70
2019-02-16T21:19:27.507Z,-0.75
2019-02-16T21:20:27.653Z,-0.78
2019-02-16T21:21:28.880Z,-0.86
2019-02-16T21:22:29.058Z,-0.83
2019-02-16T21:23:29.238Z,-0.86
2019-02-16T21:24:29.399Z,-0.91
2019-02-16T21:25:29.626Z,-1.03
2019-02-16T21:26:36.488Z,-0.97
2019-02-16T21:27:31.997Z,-1.06
2019-02-16T21:28:30.216Z,-1.05
2019-02-16T21:29:30.432Z,-1.09
2019-02-16T21:30:30.648Z,-1.12
2019-02-16T21:31:30.856Z,-1.05
2019-02-16T21:32:31.047Z,-1.05
2019-02-16T21:33:31.255Z,-1.05
2019-02-16T21:34:31.500Z,-1.05
2019-02-16T21:35:31.681Z,-1.05
2019-02-16T21:36:31.893Z,-0.99
2019-02-16T21:37:32.082Z,-0.87
2019-02-16T21:38:32.313Z,-0.91
2019-02-16T21:39:34.894Z,-0.84
2019-02-16T21:40:32.747Z,-0.81
2019-02-16T21:41:32.933Z,-0.75
2019-02-16T21:42:33.113Z,-0.77
2019-02-16T21:43:33.313Z,-0.86
2019-02-16T21:44:33.574Z,-0.77
2019-02-16T21:45:33.635Z,-0.80
2019-02-16T21:46:33.827Z,-0.83
2019-02-16T21:47:34.049Z,-0.69
2019-02-16T21:48:34.335Z,-0.80
2019-02-16T21:49:34.410Z,-0.83
2019-02-16T21:50:34.609Z,-0.87
2019-02-16T21:51:34.804Z,-0.86
2019-02-16T21:52:35.019Z,-0.86
2019-02-16T21:53:35.205Z,-1.02
2019-02-16T21:54:35.395Z,-1.05
2019-02-16T21:55:35.613Z,-1.00
2019-02-16T21:56:35.834Z,-1.13
2019-02-16T21:57:36.019Z,-1.12
2019-02-16T21:58:36.251Z,-1.12
2019-02-16T21:59:36.458Z,-1.17
